Time;durP1;ratioP1;P1;durP2;ratioP2;P2;SDS_P1;SDS_P2;PMS_P1;PMS_P2;Temp;Humidity;BMP_temperature;BMP_pressure;BME280_temperature;BME280_humidity;BME280_pressure;Samples;Min_cycle;Max_cycle;Signal;HPM_P1;HPM_P2
2021/01/29 00:00:29;;;;;;;32.97;17.10;;;8.40;79.50;;;;;;5051303;28;20511;-70
2021/01/29 00:02:55;;;;;;;33.58;17.40;;;8.40;79.40;;;;;;5039780;28;20090;-69
2021/01/29 00:05:23;;;;;;;39.70;20.27;;;8.30;79.40;;;;;;5018533;28;20340;-72
2021/01/29 00:07:49;;;;;;;34.70;17.95;;;8.30;79.40;;;;;;5049183;28;20049;-69
2021/01/29 00:10:15;;;;;;;34.15;17.70;;;8.30;79.50;;;;;;5042935;28;20109;-69
2021/01/29 00:12:41;;;;;;;35.25;18.98;;;8.30;79.60;;;;;;5051361;28;20033;-69
2021/01/29 00:15:09;;;;;;;30.55;17.30;;;8.40;79.60;;;;;;5051756;28;20040;-69
2021/01/29 00:17:35;;;;;;;31.35;17.30;;;8.30;79.40;;;;;;5051859;28;20108;-69
2021/01/29 00:20:03;;;;;;;35.72;19.58;;;8.40;79.50;;;;;;4997018;28;20124;-71
2021/01/29 00:22:29;;;;;;;32.92;17.77;;;8.30;79.50;;;;;;5031974;28;20068;-70
2021/01/29 00:24:54;;;;;;;34.83;18.35;;;8.30;79.60;;;;;;5039014;28;20053;-69
2021/01/29 00:27:20;;;;;;;35.85;18.55;;;8.30;79.70;;;;;;5034073;28;20498;-69
2021/01/29 00:29:46;;;;;;;38.55;18.90;;;8.30;79.80;;;;;;5032905;28;20025;-72
2021/01/29 00:32:11;;;;;;;34.97;17.30;;;8.30;79.90;;;;;;5051951;28;20040;-69
2021/01/29 00:34:37;;;;;;;34.75;17.52;;;8.30;79.80;;;;;;5032163;28;20116;-69
2021/01/29 00:37:03;;;;;;;34.97;17.52;;;8.30;79.90;;;;;;5051119;28;20343;-69
2021/01/29 00:39:28;;;;;;;37.35;20.15;;;8.30;80.00;;;;;;5032409;28;20382;-70
2021/01/29 00:41:54;;;;;;;36.10;18.48;;;8.20;80.10;;;;;;5032830;28;20030;-68
2021/01/29 00:44:19;;;;;;;36.42;18.65;;;8.20;80.30;;;;;;5048918;28;20363;-69
2021/01/29 00:46:45;;;;;;;42.83;21.67;;;8.20;80.40;;;;;;5043015;28;20072;-69
2021/01/29 00:49:10;;;;;;;42.58;20.95;;;8.20;80.60;;;;;;5049464;28;20363;-69
2021/01/29 00:51:36;;;;;;;36.83;18.33;;;8.10;80.70;;;;;;5050762;28;20047;-69
2021/01/29 00:54:02;;;;;;;33.83;16.98;;;8.10;80.70;;;;;;5049762;28;20039;-69
2021/01/29 00:56:27;;;;;;;44.85;21.30;;;8.20;80.80;;;;;;5032925;28;20040;-70
2021/01/29 00:58:53;;;;;;;34.92;18.17;;;8.20;80.80;;;;;;5011912;28;20123;-69
2021/01/29 01:01:19;;;;;;;36.05;18.30;;;8.10;80.80;;;;;;5031392;28;20029;-69
2021/01/29 01:03:44;;;;;;;38.40;18.80;;;8.20;80.90;;;;;;5046515;28;20029;-68
2021/01/29 01:06:10;;;;;;;38.50;20.55;;;8.10;80.90;;;;;;5050891;28;20037;-69
2021/01/29 01:08:35;;;;;;;39.95;17.67;;;8.10;81.00;;;;;;5050244;28;20045;-69
2021/01/29 01:11:01;;;;;;;40.38;20.40;;;8.10;81.00;;;;;;5050759;28;20108;-69
2021/01/29 01:13:27;;;;;;;38.40;17.55;;;8.10;81.00;;;;;;5050122;28;20033;-69
2021/01/29 01:15:53;;;;;;;38.15;18.58;;;8.10;81.00;;;;;;5050279;28;20074;-69
2021/01/29 01:18:18;;;;;;;36.80;17.85;;;8.10;80.90;;;;;;5049857;28;20071;-70
2021/01/29 01:20:44;;;;;;;39.42;20.85;;;8.20;80.90;;;;;;5049524;28;20166;-68
2021/01/29 01:23:28;;;;;;;37.95;18.02;;;8.30;80.90;;;;;;5050131;28;20052;-68
2021/01/29 01:25:54;;;;;;;40.47;18.45;;;8.30;80.70;;;;;;5031891;28;20071;-68
2021/01/29 01:28:19;;;;;;;42.58;21.40;;;8.30;80.70;;;;;;5047042;28;20029;-68
2021/01/29 01:30:45;;;;;;;44.70;20.63;;;8.30;80.70;;;;;;5035300;28;20021;-68
2021/01/29 01:33:10;;;;;;;49.97;20.83;;;8.30;80.80;;;;;;5049259;28;20032;-67
2021/01/29 01:35:36;;;;;;;44.75;19.50;;;8.30;80.90;;;;;;5049976;28;20068;-67
2021/01/29 01:38:03;;;;;;;44.53;18.85;;;8.30;81.10;;;;;;5050564;28;20052;-67
2021/01/29 01:40:35;;;;;;;36.42;17.92;;;8.30;81.00;;;;;;5049417;28;20029;-68
2021/01/29 01:43:02;;;;;;;56.97;24.33;;;8.30;81.00;;;;;;5032112;28;20421;-69
2021/01/29 01:45:28;;;;;;;42.85;18.77;;;8.30;81.20;;;;;;5031694;28;20037;-69
2021/01/29 01:48:09;;;;;;;51.00;21.50;;;8.30;81.30;;;;;;5036812;28;20033;-68
2021/01/29 01:50:39;;;;;;;48.53;21.58;;;8.30;81.30;;;;;;5043388;28;20052;-68
2021/01/29 01:53:13;;;;;;;55.67;22.85;;;8.30;81.40;;;;;;5049724;28;20079;-69
2021/01/29 01:55:39;;;;;;;45.08;20.85;;;8.20;81.50;;;;;;5046299;28;20044;-69
2021/01/29 01:58:07;;;;;;;49.60;20.67;;;8.20;81.60;;;;;;5044644;28;20124;-68
2021/01/29 02:00:34;;;;;;;45.63;20.13;;;8.30;81.60;;;;;;5031886;28;20035;-69
2021/01/29 02:03:03;;;;;;;47.95;21.25;;;8.30;81.50;;;;;;5050225;28;20052;-69
2021/01/29 02:05:33;;;;;;;49.40;23.48;;;8.30;81.50;;;;;;5049193;28;20048;-69
2021/01/29 02:08:04;;;;;;;45.88;20.30;;;8.30;81.70;;;;;;5038658;28;20057;-69
2021/01/29 02:10:31;;;;;;;48.55;22.48;;;8.30;81.70;;;;;;5020370;28;20021;-69
2021/01/29 02:12:58;;;;;;;44.70;18.92;;;8.40;81.70;;;;;;5049764;28;20021;-68
2021/01/29 02:15:27;;;;;;;54.65;24.23;;;8.40;81.60;;;;;;5051278;28;20104;-68
2021/01/29 02:17:52;;;;;;;46.30;18.55;;;8.40;81.70;;;;;;5036346;28;20466;-71
2021/01/29 02:20:55;;;;;;;41.80;19.30;;;8.40;81.80;;;;;;5052290;28;20043;-68
2021/01/29 02:23:58;;;;;;;46.70;20.38;;;8.50;81.50;;;;;;5054340;28;20036;-69
2021/01/29 02:26:54;;;;;;;56.53;22.15;;;8.50;81.50;;;;;;5050464;28;20025;-68
2021/01/29 02:29:55;;;;;;;51.83;22.35;;;8.50;81.60;;;;;;5045112;28;20072;-69
2021/01/29 02:32:52;;;;;;;45.17;19.45;;;8.60;81.60;;;;;;5044691;28;20036;-69
2021/01/29 02:35:27;;;;;;;50.22;22.35;;;8.60;81.50;;;;;;4962901;28;20106;-69
2021/01/29 02:38:07;;;;;;;44.58;21.27;;;8.60;81.40;;;;;;5033926;28;20029;-69
2021/01/29 02:40:58;;;;;;;50.33;21.50;;;8.70;81.40;;;;;;5043240;28;20033;-69
2021/01/29 02:43:29;;;;;;;48.67;22.23;;;8.70;81.50;;;;;;5037226;28;20040;-69
2021/01/29 02:46:10;;;;;;;46.83;23.80;;;8.70;81.70;;;;;;5047458;28;20043;-68
2021/01/29 02:49:03;;;;;;;47.85;19.85;;;8.70;81.70;;;;;;5046363;28;20115;-70
2021/01/29 02:51:34;;;;;;;37.42;17.83;;;8.70;81.80;;;;;;5049083;28;20057;-69
2021/01/29 02:54:18;;;;;;;42.72;19.40;;;8.80;81.80;;;;;;5053013;28;20028;-69
2021/01/29 02:56:47;;;;;;;47.10;20.98;;;8.80;81.70;;;;;;5053244;28;20025;-69
2021/01/29 02:59:21;;;;;;;48.75;21.33;;;8.80;81.70;;;;;;5051316;28;20036;-68
2021/01/29 03:02:07;;;;;;;45.85;21.33;;;8.80;81.70;;;;;;5053569;28;20090;-68
2021/01/29 03:04:53;;;;;;;42.95;19.20;;;8.90;81.80;;;;;;5043101;28;20049;-68
2021/01/29 03:07:26;;;;;;;45.08;19.52;;;8.90;81.70;;;;;;5044478;28;20025;-69
2021/01/29 03:10:01;;;;;;;44.28;20.85;;;8.90;81.70;;;;;;5045266;28;20139;-68
2021/01/29 03:12:55;;;;;;;48.47;21.98;;;8.90;81.70;;;;;;5048911;28;20060;-69
2021/01/29 03:15:33;;;;;;;44.20;20.08;;;9.00;81.80;;;;;;5049250;28;20387;-68
2021/01/29 03:18:04;;;;;;;42.03;20.65;;;9.00;81.70;;;;;;5052444;28;20532;-74
2021/01/29 03:20:36;;;;;;;40.90;20.00;;;9.00;81.80;;;;;;5048859;28;20098;-70
2021/01/29 03:23:25;;;;;;;51.05;22.83;;;9.00;81.80;;;;;;5052788;28;20052;-69
2021/01/29 03:25:56;;;;;;;40.22;18.92;;;9.00;81.90;;;;;;5026456;28;20036;-71
2021/01/29 03:28:34;;;;;;;43.85;21.00;;;9.00;81.90;;;;;;5034013;28;20340;-69
2021/01/29 03:31:03;;;;;;;49.53;20.95;;;9.10;82.00;;;;;;5050346;28;20082;-75
2021/01/29 03:33:32;;;;;;;38.40;18.60;;;9.10;82.00;;;;;;5042010;28;20021;-68
2021/01/29 03:36:09;;;;;;;40.30;20.35;;;9.10;82.00;;;;;;5044435;28;20074;-68
2021/01/29 03:38:44;;;;;;;39.85;18.25;;;9.10;82.00;;;;;;5034723;28;20036;-68
2021/01/29 03:41:19;;;;;;;41.67;19.38;;;9.20;82.10;;;;;;5034543;28;20511;-69
2021/01/29 03:44:25;;;;;;;37.58;18.08;;;9.20;82.00;;;;;;5053094;28;20437;-68
2021/01/29 03:47:02;;;;;;;41.85;19.63;;;9.20;81.80;;;;;;4995447;28;20049;-68
2021/01/29 03:50:01;;;;;;;37.03;17.48;;;9.30;81.70;;;;;;5032419;28;20493;-68
2021/01/29 03:52:53;;;;;;;34.65;17.00;;;9.30;81.60;;;;;;5036246;28;20037;-68
2021/01/29 03:55:44;;;;;;;34.05;16.20;;;9.30;81.60;;;;;;5038754;28;20048;-68
2021/01/29 03:58:54;;;;;;;28.83;14.93;;;9.40;81.60;;;;;;5051598;28;20475;-68
2021/01/29 04:01:41;;;;;;;38.15;18.48;;;9.50;81.40;;;;;;5030235;28;20029;-68
2021/01/29 04:04:43;;;;;;;33.83;15.65;;;9.50;81.20;;;;;;5045904;28;20036;-68
2021/01/29 04:07:36;;;;;;;33.30;18.10;;;9.60;81.30;;;;;;5041466;28;20037;-69
2021/01/29 04:10:14;;;;;;;34.60;17.63;;;9.60;81.40;;;;;;5049074;28;20061;-72
2021/01/29 04:12:45;;;;;;;32.28;15.43;;;9.50;81.50;;;;;;5040418;28;20033;-68
2021/01/29 04:15:27;;;;;;;31.38;16.55;;;9.60;81.70;;;;;;5048699;28;20032;-68
2021/01/29 04:18:27;;;;;;;35.08;18.23;;;9.50;81.70;;;;;;5051881;28;20063;-69
2021/01/29 04:20:57;;;;;;;32.70;16.98;;;9.60;81.80;;;;;;5039576;28;20060;-69
2021/01/29 04:23:38;;;;;;;27.70;14.80;;;9.60;81.70;;;;;;5048307;28;20044;-73
2021/01/29 04:26:11;;;;;;;25.58;13.98;;;9.70;81.50;;;;;;5051587;28;20039;-75
2021/01/29 04:28:42;;;;;;;30.87;15.80;;;9.70;81.30;;;;;;5036662;28;20025;-69
2021/01/29 04:31:11;;;;;;;28.90;14.57;;;9.80;81.20;;;;;;5050943;28;20323;-72
2021/01/29 04:33:42;;;;;;;29.02;15.98;;;9.80;81.20;;;;;;5036911;28;20472;-69
2021/01/29 04:36:10;;;;;;;26.20;12.80;;;9.80;81.20;;;;;;5051534;28;20116;-68
2021/01/29 04:38:56;;;;;;;26.42;13.30;;;9.90;81.20;;;;;;5032398;28;20025;-68
2021/01/29 04:41:31;;;;;;;25.92;13.63;;;10.00;81.00;;;;;;5048567;28;20067;-68
2021/01/29 04:44:06;;;;;;;27.10;13.68;;;10.00;80.90;;;;;;5049708;28;20081;-68
2021/01/29 04:46:52;;;;;;;26.20;14.15;;;10.00;81.00;;;;;;5045795;28;20065;-68
2021/01/29 04:49:34;;;;;;;30.35;15.00;;;9.90;81.10;;;;;;5029223;28;20034;-69
2021/01/29 04:52:03;;;;;;;25.15;12.38;;;9.90;81.30;;;;;;5046555;28;20343;-69
2021/01/29 04:55:06;;;;;;;29.30;13.93;;;9.90;81.30;;;;;;5040824;28;20025;-70
2021/01/29 04:57:46;;;;;;;22.27;12.20;;;10.00;81.20;;;;;;5042089;28;20116;-69
2021/01/29 05:00:42;;;;;;;25.98;12.95;;;10.00;81.20;;;;;;5031345;28;20607;-69
2021/01/29 05:03:40;;;;;;;23.23;12.68;;;10.00;81.10;;;;;;5046111;28;20086;-71
2021/01/29 05:06:15;;;;;;;28.02;15.50;;;10.10;81.30;;;;;;5031075;28;20034;-69
2021/01/29 05:08:53;;;;;;;24.27;13.95;;;10.10;81.30;;;;;;5036364;28;20125;-69
2021/01/29 05:11:37;;;;;;;23.75;12.95;;;10.10;81.20;;;;;;5037635;28;20037;-68
2021/01/29 05:14:28;;;;;;;;;;;10.00;81.80;;;;;;5050669;28;20044;-68
2021/01/29 05:17:06;;;;;;;21.15;11.80;;;10.20;80.80;;;;;;5011588;28;19916;-69
2021/01/29 05:20:02;;;;;;;23.77;12.02;;;10.20;80.90;;;;;;5041161;28;20163;-69
2021/01/29 05:22:48;;;;;;;24.73;14.27;;;10.30;80.90;;;;;;5024669;28;20071;-70
2021/01/29 05:25:58;;;;;;;22.85;12.77;;;10.20;81.00;;;;;;5048632;28;20048;-71
2021/01/29 05:28:48;;;;;;;20.70;11.45;;;10.30;81.20;;;;;;4979634;28;20482;-68
2021/01/29 05:31:35;;;;;;;20.90;11.48;;;10.30;81.20;;;;;;5035085;28;20033;-68
2021/01/29 05:34:09;;;;;;;21.77;12.38;;;10.30;81.00;;;;;;5042627;28;20025;-69
2021/01/29 05:37:07;;;;;;;19.92;11.40;;;10.40;81.00;;;;;;5030967;28;20060;-69
2021/01/29 05:40:21;;;;;;;17.83;10.50;;;10.40;80.90;;;;;;5031507;28;20044;-68
2021/01/29 05:43:23;;;;;;;17.65;10.60;;;10.40;80.90;;;;;;4950435;28;20031;-73
2021/01/29 05:46:27;;;;;;;19.52;11.30;;;10.40;80.90;;;;;;5038309;28;20029;-68
2021/01/29 05:49:14;;;;;;;19.65;10.10;;;10.50;80.90;;;;;;4966150;28;20098;-68
2021/01/29 05:52:04;;;;;;;19.02;11.18;;;10.50;80.70;;;;;;5038319;28;20041;-70
2021/01/29 05:55:09;;;;;;;15.88;9.40;;;10.50;80.80;;;;;;5025064;28;20511;-69
2021/01/29 05:57:53;;;;;;;18.10;9.45;;;10.50;80.70;;;;;;5030972;28;20060;-68
2021/01/29 06:00:39;;;;;;;19.65;11.02;;;10.60;80.70;;;;;;5045981;28;20029;-68
2021/01/29 06:03:27;;;;;;;20.50;11.45;;;10.60;80.70;;;;;;5037384;28;20082;-71
2021/01/29 06:06:11;;;;;;;17.42;10.25;;;10.50;80.90;;;;;;5041283;28;20098;-69
2021/01/29 06:08:56;;;;;;;20.55;11.40;;;10.70;81.10;;;;;;5034090;28;20073;-69
2021/01/29 06:11:55;;;;;;;18.50;8.98;;;10.70;81.20;;;;;;5028596;28;20049;-68
2021/01/29 06:14:20;;;;;;;17.10;9.10;;;10.80;81.30;;;;;;5047111;28;20029;-69
2021/01/29 06:17:05;;;;;;;18.73;11.15;;;10.80;81.80;;;;;;5030915;28;20541;-69
2021/01/29 06:19:58;;;;;;;20.73;11.45;;;10.90;82.30;;;;;;5039285;28;20384;-68
2021/01/29 06:22:59;;;;;;;19.58;10.63;;;11.00;82.30;;;;;;5043045;28;20080;-68
2021/01/29 06:25:37;;;;;;;16.90;9.93;;;11.00;82.50;;;;;;5046654;28;20501;-68
2021/01/29 06:28:30;;;;;;;16.40;8.70;;;11.10;82.50;;;;;;5050972;28;20108;-69
2021/01/29 06:31:10;;;;;;;14.15;8.55;;;11.20;82.60;;;;;;5030635;28;20025;-69
2021/01/29 06:34:01;;;;;;;16.02;8.68;;;12.60;83.90;;;;;;5029929;28;20026;-69
2021/01/29 06:37:04;;;;;;;18.45;8.43;;;11.20;83.70;;;;;;5050033;28;20071;-69
2021/01/29 06:39:45;;;;;;;13.88;7.50;;;11.30;84.40;;;;;;5030429;28;20033;-69
2021/01/29 06:42:52;;;;;;;13.90;8.50;;;11.30;84.70;;;;;;5038274;28;20029;-69
2021/01/29 06:45:49;;;;;;;15.18;7.63;;;11.40;84.60;;;;;;5048339;28;20503;-69
2021/01/29 06:48:40;;;;;;;15.18;8.93;;;11.40;84.60;;;;;;5050115;28;20124;-69
2021/01/29 06:51:23;;;;;;;17.35;9.15;;;11.50;85.00;;;;;;5036298;28;20067;-70
2021/01/29 06:54:13;;;;;;;14.63;8.48;;;11.40;85.20;;;;;;5048931;28;20025;-68
2021/01/29 06:56:42;;;;;;;15.32;7.70;;;11.50;85.20;;;;;;5049129;28;20033;-68
2021/01/29 06:59:47;;;;;;;12.77;8.00;;;11.50;85.10;;;;;;5049493;28;20041;-68
2021/01/29 07:02:30;;;;;;;16.58;8.82;;;11.60;84.90;;;;;;5019937;28;20044;-68
2021/01/29 07:05:18;;;;;;;14.38;7.63;;;11.60;84.70;;;;;;5048033;28;20175;-68
2021/01/29 07:07:56;;;;;;;14.38;8.00;;;11.60;84.70;;;;;;5046190;28;20032;-69
2021/01/29 07:11:09;;;;;;;14.05;8.65;;;11.50;85.30;;;;;;5052589;28;20195;-68
2021/01/29 07:13:50;;;;;;;14.25;7.90;;;11.60;84.80;;;;;;4986042;28;20062;-68
2021/01/29 07:16:36;;;;;;;17.83;7.72;;;11.60;84.90;;;;;;4978416;28;20278;-76
2021/01/29 07:19:24;;;;;;;14.82;8.27;;;11.60;85.10;;;;;;5023218;28;20050;-68
2021/01/29 07:22:26;;;;;;;14.82;7.07;;;11.60;85.20;;;;;;5033017;28;20336;-75
2021/01/29 07:25:07;;;;;;;13.07;8.02;;;11.40;85.80;;;;;;5050815;28;20100;-70
2021/01/29 07:28:05;;;;;;;13.70;7.65;;;11.60;84.90;;;;;;5046049;28;20083;-68
2021/01/29 07:30:49;;;;;;;14.70;7.95;;;11.70;84.80;;;;;;5045120;28;20022;-68
2021/01/29 07:33:43;;;;;;;14.48;7.30;;;11.70;84.80;;;;;;5035456;28;20126;-68
2021/01/29 07:36:45;;;;;;;19.42;9.63;;;11.60;84.90;;;;;;4999826;28;20033;-68
2021/01/29 07:39:31;;;;;;;19.88;9.32;;;11.60;85.20;;;;;;5052720;28;20052;-69
2021/01/29 07:42:34;;;;;;;18.65;9.57;;;11.50;85.20;;;;;;5038874;28;20082;-69
2021/01/29 07:45:06;;;;;;;15.80;8.18;;;11.50;85.40;;;;;;5025670;28;20095;-70
2021/01/29 07:48:05;;;;;;;14.80;9.45;;;11.40;86.00;;;;;;5032832;28;20065;-69
2021/01/29 07:50:52;;;;;;;13.80;8.48;;;11.50;85.60;;;;;;5028292;28;20033;-69
2021/01/29 07:53:32;;;;;;;13.18;8.02;;;11.40;86.10;;;;;;5045130;28;20027;-76
2021/01/29 07:56:19;;;;;;;13.98;7.78;;;11.50;86.20;;;;;;5031374;28;20477;-69
2021/01/29 07:58:58;;;;;;;11.98;5.95;;;11.50;86.10;;;;;;5052273;28;20048;-69
2021/01/29 08:01:42;;;;;;;11.32;5.95;;;11.60;85.60;;;;;;5042209;28;20036;-70
2021/01/29 08:04:55;;;;;;;13.23;6.25;;;11.50;86.20;;;;;;5033990;28;20499;-78
2021/01/29 08:07:31;;;;;;;8.65;5.20;;;11.60;85.30;;;;;;5007452;28;20065;-76
2021/01/29 08:10:01;;;;;;;9.50;5.25;;;11.50;85.90;;;;;;5049932;28;20041;-72
2021/01/29 08:12:28;;;;;;;8.80;4.80;;;11.60;86.00;;;;;;5063623;28;20423;-69
2021/01/29 08:15:05;;;;;;;10.02;5.32;;;11.70;85.40;;;;;;5065853;28;20063;-69
2021/01/29 08:17:43;;;;;;;11.68;4.63;;;11.70;85.40;;;;;;5062455;28;20024;-71
2021/01/29 08:20:27;;;;;;;8.48;4.80;;;11.80;85.40;;;;;;5063753;28;20836;-70
2021/01/29 08:23:11;;;;;;;9.50;5.22;;;11.70;85.80;;;;;;5057401;28;20072;-69
2021/01/29 08:25:55;;;;;;;9.90;4.80;;;11.80;85.10;;;;;;5057598;28;20035;-69
2021/01/29 08:28:24;;;;;;;10.75;5.65;;;11.90;85.10;;;;;;5066206;28;20033;-70
2021/01/29 08:30:57;;;;;;;9.18;5.40;;;11.80;85.60;;;;;;5066064;28;20136;-69
2021/01/29 08:33:50;;;;;;;9.82;5.68;;;11.80;85.60;;;;;;5063293;28;20123;-74
2021/01/29 08:36:19;;;;;;;11.37;6.97;;;12.00;84.80;;;;;;5053762;28;20096;-68
2021/01/29 08:39:20;;;;;;;13.93;6.80;;;11.90;85.20;;;;;;5060328;28;20287;-69
2021/01/29 08:42:00;;;;;;;16.33;7.25;;;12.00;84.90;;;;;;5064346;28;20035;-71
2021/01/29 08:44:53;;;;;;;10.88;6.78;;;11.90;85.40;;;;;;5056315;28;20032;-70
2021/01/29 08:47:39;;;;;;;13.35;7.10;;;11.90;86.40;;;;;;5069035;28;20108;-69
2021/01/29 08:50:30;;;;;;;18.30;5.82;;;11.90;85.70;;;;;;5064701;28;20078;-69
2021/01/29 08:53:27;;;;;;;10.93;4.30;;;12.00;85.40;;;;;;5057710;28;20035;-69
2021/01/29 08:56:18;;;;;;;9.55;4.22;;;11.90;86.00;;;;;;5057552;28;20477;-72
2021/01/29 08:58:59;;;;;;;15.13;5.50;;;12.00;85.60;;;;;;5062183;28;20539;-71
2021/01/29 09:01:57;;;;;;;16.73;6.30;;;11.90;85.60;;;;;;5065682;28;20058;-70
2021/01/29 09:04:43;;;;;;;14.65;4.93;;;11.90;86.10;;;;;;5035712;28;20041;-76
2021/01/29 09:07:18;;;;;;;19.40;6.30;;;11.80;86.30;;;;;;5052454;28;20029;-70
2021/01/29 09:09:45;;;;;;;18.83;4.93;;;11.80;86.30;;;;;;5043652;28;20054;-70
2021/01/29 09:12:27;;;;;;;13.13;5.35;;;11.80;86.30;;;;;;5048539;28;20459;-69
2021/01/29 09:14:58;;;;;;;25.95;7.10;;;11.90;85.60;;;;;;5036387;28;20029;-69
2021/01/29 09:17:39;;;;;;;20.88;6.75;;;12.00;85.60;;;;;;5034844;28;20099;-78
2021/01/29 09:20:08;;;;;;;14.35;5.47;;;11.90;86.10;;;;;;5032930;28;20028;-70
2021/01/29 09:22:43;;;;;;;13.10;4.28;;;11.90;85.30;;;;;;5040067;28;20344;-69
2021/01/29 09:25:25;;;;;;;17.38;5.30;;;12.10;85.30;;;;;;5034570;28;20040;-71
2021/01/29 09:28:26;;;;;;;16.85;5.68;;;11.80;85.80;;;;;;5036530;28;20048;-71
2021/01/29 09:31:19;;;;;;;21.30;6.20;;;11.80;85.90;;;;;;5039461;28;20116;-71
2021/01/29 09:34:00;;;;;;;20.30;5.75;;;11.80;85.20;;;;;;5012713;28;20155;-69
2021/01/29 09:36:47;;;;;;;23.50;7.90;;;11.80;85.30;;;;;;5036828;28;20067;-71
2021/01/29 09:39:19;;;;;;;23.85;6.75;;;11.80;85.10;;;;;;5038373;28;20056;-70
2021/01/29 09:42:11;;;;;;;26.40;5.82;;;11.70;85.30;;;;;;5034646;28;20034;-70
2021/01/29 09:44:44;;;;;;;23.02;4.97;;;11.70;85.50;;;;;;5041499;28;20025;-74
2021/01/29 09:47:14;;;;;;;32.00;6.53;;;11.70;85.30;;;;;;5040852;28;20044;-69
2021/01/29 09:49:41;;;;;;;18.10;4.90;;;11.70;85.40;;;;;;5025864;28;20026;-73
2021/01/29 09:52:30;;;;;;;24.80;5.97;;;11.60;85.40;;;;;;5028670;28;20127;-70
2021/01/29 09:55:07;;;;;;;37.22;8.00;;;11.60;85.30;;;;;;5027477;28;20371;-69
2021/01/29 09:57:47;;;;;;;30.30;6.85;;;11.60;85.30;;;;;;5033678;28;20083;-70
2021/01/29 10:00:21;;;;;;;28.98;7.05;;;11.70;85.00;;;;;;5036692;28;20112;-70
2021/01/29 10:03:02;;;;;;;33.13;8.20;;;11.60;84.90;;;;;;5035498;28;20043;-70
2021/01/29 10:05:31;;;;;;;35.00;7.20;;;11.70;84.90;;;;;;5027088;28;20112;-72
2021/01/29 10:08:07;;;;;;;32.60;7.05;;;11.70;84.50;;;;;;5020539;28;20033;-71
2021/01/29 10:10:50;;;;;;;30.92;7.53;;;11.70;84.10;;;;;;5057557;28;20033;-71
2021/01/29 10:13:44;;;;;;;35.05;6.43;;;11.80;83.70;;;;;;5042153;28;20441;-71
2021/01/29 10:16:31;;;;;;;41.45;8.50;;;11.80;83.50;;;;;;5054432;28;20020;-70
2021/01/29 10:19:08;;;;;;;34.63;6.47;;;11.80;83.00;;;;;;5067732;28;20100;-72
2021/01/29 10:22:01;;;;;;;31.55;7.53;;;11.80;83.00;;;;;;5052930;28;20083;-71
2021/01/29 10:25:05;;;;;;;33.45;8.32;;;11.80;82.90;;;;;;5059993;28;20048;-77
2021/01/29 10:27:52;;;;;;;33.63;8.00;;;11.90;82.50;;;;;;5049397;28;20059;-70
2021/01/29 10:30:26;;;;;;;31.70;6.47;;;11.90;82.60;;;;;;5061465;28;20032;-68
2021/01/29 10:33:01;;;;;;;28.30;5.93;;;11.90;82.40;;;;;;5056098;28;20099;-68
2021/01/29 10:35:41;;;;;;;29.05;7.18;;;11.90;82.30;;;;;;5043774;28;20036;-68
2021/01/29 10:38:38;;;;;;;30.05;7.70;;;12.00;82.30;;;;;;5043308;28;20233;-72
2021/01/29 10:41:06;;;;;;;45.53;9.18;;;12.00;81.90;;;;;;5069789;28;20036;-72
2021/01/29 10:43:45;;;;;;;31.52;6.50;;;12.10;81.90;;;;;;5069951;28;20081;-69
2021/01/29 10:46:15;;;;;;;27.77;5.85;;;12.10;81.40;;;;;;5048485;28;20070;-70
2021/01/29 10:49:04;;;;;;;27.15;8.40;;;12.20;81.50;;;;;;5048531;28;20434;-69
2021/01/29 10:51:30;;;;;;;34.65;8.40;;;12.30;81.20;;;;;;5067982;28;20020;-72
2021/01/29 10:54:03;;;;;;;28.05;6.88;;;12.30;81.10;;;;;;5064923;28;20531;-70
2021/01/29 10:56:50;;;;;;;27.13;6.00;;;12.40;80.60;;;;;;5064413;28;20036;-76
2021/01/29 10:59:34;;;;;;;43.78;8.27;;;12.50;80.80;;;;;;5054196;28;20039;-70
2021/01/29 11:02:03;;;;;;;33.58;7.05;;;12.50;80.10;;;;;;5044117;28;20119;-71
2021/01/29 11:04:39;;;;;;;32.42;7.03;;;12.60;80.10;;;;;;5064308;28;20079;-77
2021/01/29 11:07:25;;;;;;;25.75;6.30;;;12.70;79.90;;;;;;5057040;28;20486;-71
2021/01/29 11:10:17;;;;;;;28.23;6.63;;;12.80;79.80;;;;;;5056478;28;20045;-69
2021/01/29 11:13:10;;;;;;;27.55;5.78;;;12.80;79.20;;;;;;5049136;28;20033;-70
2021/01/29 11:15:58;;;;;;;24.08;5.93;;;12.90;78.80;;;;;;5025691;28;20593;-69
2021/01/29 11:18:32;;;;;;;27.95;7.82;;;13.00;78.60;;;;;;5044127;28;20032;-72
2021/01/29 11:21:17;;;;;;;33.55;7.70;;;13.00;78.40;;;;;;5028467;28;20132;-69
2021/01/29 11:24:10;;;;;;;20.08;5.45;;;13.00;78.00;;;;;;5026054;28;20479;-69
2021/01/29 11:27:03;;;;;;;29.92;6.05;;;13.00;78.20;;;;;;5040981;28;20108;-69
2021/01/29 11:29:52;;;;;;;21.73;5.45;;;13.00;78.30;;;;;;5025799;28;20540;-68
2021/01/29 11:32:35;;;;;;;28.23;5.22;;;13.00;78.40;;;;;;5025893;28;20502;-68
2021/01/29 11:35:25;;;;;;;21.15;5.53;;;13.00;78.30;;;;;;5043720;28;20032;-68
2021/01/29 11:37:57;;;;;;;24.67;4.80;;;13.00;78.30;;;;;;5048601;28;20490;-67
2021/01/29 11:40:40;;;;;;;21.05;4.63;;;12.90;78.30;;;;;;5044328;28;20036;-68
2021/01/29 11:43:32;;;;;;;26.08;6.05;;;12.90;78.30;;;;;;5034052;28;20506;-73
2021/01/29 11:46:30;;;;;;;27.98;5.63;;;12.90;78.40;;;;;;5051887;28;20037;-69
2021/01/29 11:49:02;;;;;;;33.72;7.15;;;12.90;78.60;;;;;;5030825;28;20037;-69
2021/01/29 11:51:58;;;;;;;27.95;6.90;;;13.00;78.20;;;;;;5032585;28;20033;-73
2021/01/29 11:54:36;;;;;;;29.38;7.68;;;13.20;77.70;;;;;;5029682;28;20083;-68
2021/01/29 11:57:10;;;;;;;23.67;6.85;;;13.20;76.90;;;;;;5042732;28;20036;-71
2021/01/29 11:59:50;;;;;;;25.50;5.85;;;13.30;77.20;;;;;;5045705;28;20059;-68
2021/01/29 12:02:31;;;;;;;27.48;6.10;;;13.50;76.80;;;;;;5040268;28;20056;-70
2021/01/29 12:05:27;;;;;;;21.83;5.40;;;13.60;76.30;;;;;;5051290;28;20040;-68
2021/01/29 12:08:06;;;;;;;28.15;5.43;;;13.60;75.90;;;;;;5030843;28;20029;-75
2021/01/29 12:10:50;;;;;;;27.73;5.28;;;13.50;76.20;;;;;;5051893;28;20121;-70
2021/01/29 12:13:41;;;;;;;21.40;5.82;;;13.50;76.50;;;;;;5061680;28;20056;-76
2021/01/29 12:16:18;;;;;;;21.75;5.53;;;13.40;76.30;;;;;;5058772;28;20286;-68
2021/01/29 12:18:49;;;;;;;17.63;4.55;;;13.40;76.60;;;;;;5057046;28;20103;-68
2021/01/29 12:21:46;;;;;;;20.05;4.20;;;13.30;76.50;;;;;;5063268;28;20115;-68
2021/01/29 12:24:34;;;;;;;24.95;6.47;;;13.20;76.80;;;;;;5059253;28;20028;-68
2021/01/29 12:27:07;;;;;;;20.83;6.43;;;13.20;77.20;;;;;;5053317;28;20029;-69
2021/01/29 12:30:01;;;;;;;19.60;5.80;;;13.20;77.10;;;;;;5067306;28;20463;-68
2021/01/29 12:32:29;;;;;;;32.75;6.82;;;13.30;77.00;;;;;;5067277;28;20454;-70
2021/01/29 12:34:55;;;;;;;19.20;4.80;;;13.30;76.50;;;;;;5065496;28;20025;-69
2021/01/29 12:37:26;;;;;;;21.33;5.35;;;13.30;76.70;;;;;;5066813;28;20075;-68
2021/01/29 12:39:57;;;;;;;20.10;3.85;;;13.30;76.70;;;;;;5071126;28;20078;-69
2021/01/29 12:42:43;;;;;;;20.88;4.72;;;13.30;76.60;;;;;;5071783;28;20021;-68
2021/01/29 12:45:29;;;;;;;22.73;3.65;;;13.30;76.70;;;;;;5069618;28;20037;-69
2021/01/29 12:48:19;;;;;;;23.27;4.45;;;13.30;76.80;;;;;;5060901;28;20048;-72
2021/01/29 12:51:24;;;;;;;18.40;4.95;;;13.20;76.90;;;;;;5063046;28;20487;-68
2021/01/29 12:54:02;;;;;;;22.45;5.88;;;13.10;77.20;;;;;;5060925;28;20028;-68
2021/01/29 12:56:36;;;;;;;19.80;5.15;;;13.00;77.60;;;;;;5062073;28;20032;-67
2021/01/29 12:59:04;;;;;;;18.05;4.53;;;13.00;78.20;;;;;;5067455;28;20033;-68
2021/01/29 13:01:33;;;;;;;18.90;5.60;;;13.00;78.20;;;;;;5059625;28;20036;-68
2021/01/29 13:04:05;;;;;;;26.27;6.72;;;12.90;78.30;;;;;;5070627;28;20039;-68
2021/01/29 13:06:49;;;;;;;21.13;4.18;;;12.80;78.30;;;;;;5064881;28;20030;-69
2021/01/29 13:09:36;;;;;;;12.38;3.75;;;12.70;78.40;;;;;;5057012;28;20115;-68
2021/01/29 13:12:49;;;;;;;15.55;3.97;;;12.60;78.60;;;;;;5027390;28;20048;-70
2021/01/29 13:15:21;;;;;;;13.60;3.50;;;12.70;78.50;;;;;;5024112;28;20076;-70
2021/01/29 13:17:58;;;;;;;16.67;3.92;;;12.70;78.80;;;;;;5038625;28;20056;-69
2021/01/29 13:20:34;;;;;;;17.75;3.75;;;12.70;78.70;;;;;;5036095;28;20039;-68
2021/01/29 13:23:31;;;;;;;11.70;3.17;;;12.70;78.80;;;;;;5042980;28;20029;-70
2021/01/29 13:26:13;;;;;;;21.30;3.90;;;12.70;78.80;;;;;;4999463;28;20033;-68
2021/01/29 13:29:16;;;;;;;17.50;4.82;;;12.60;78.90;;;;;;5039858;28;20059;-69
2021/01/29 13:31:43;;;;;;;14.95;3.45;;;12.60;79.40;;;;;;5033236;28;20037;-68
2021/01/29 13:34:21;;;;;;;13.73;4.13;;;12.60;79.70;;;;;;5034367;28;20033;-68
2021/01/29 13:37:27;;;;;;;18.85;5.03;;;12.60;79.60;;;;;;5032295;28;20095;-68
2021/01/29 13:40:21;;;;;;;17.90;4.55;;;12.70;79.50;;;;;;5022032;28;20464;-70
2021/01/29 13:42:47;;;;;;;;;;;12.50;80.20;;;;;;5036726;28;20033;-68
2021/01/29 13:45:23;;;;;;;16.30;4.47;;;12.70;79.40;;;;;;5044494;28;19909;-68